sensor_id;sensor_type;location;lat;lon;timestamp;P1;durP1;ratioP1;P2;durP2;ratioP2
25846;SDS011;13676;50.168;8.568;2023-10-19T00:00:34;9.43;;;6.97;;
25846;SDS011;13676;50.168;8.568;2023-10-19T00:03:01;9.77;;;6.65;;
25846;SDS011;13676;50.168;8.568;2023-10-19T00:05:31;9.75;;;6.40;;
25846;SDS011;13676;50.168;8.568;2023-10-19T00:07:58;10.03;;;7.80;;
25846;SDS011;13676;50.168;8.568;2023-10-19T00:10:25;8.10;;;6.97;;
25846;SDS011;13676;50.168;8.568;2023-10-19T00:12:57;9.93;;;7.18;;
25846;SDS011;13676;50.168;8.568;2023-10-19T00:22:14;7.05;;;6.32;;
25846;SDS011;13676;50.168;8.568;2023-10-19T00:24:46;7.80;;;6.35;;
25846;SDS011;13676;50.168;8.568;2023-10-19T00:27:13;11.55;;;7.45;;
25846;SDS011;13676;50.168;8.568;2023-10-19T00:29:42;9.15;;;7.35;;
25846;SDS011;13676;50.168;8.568;2023-10-19T00:32:14;7.50;;;6.70;;
25846;SDS011;13676;50.168;8.568;2023-10-19T00:34:40;8.45;;;5.93;;
25846;SDS011;13676;50.168;8.568;2023-10-19T00:37:06;6.25;;;5.65;;
25846;SDS011;13676;50.168;8.568;2023-10-19T00:39:35;6.00;;;4.60;;
25846;SDS011;13676;50.168;8.568;2023-10-19T00:42:16;5.82;;;4.60;;
25846;SDS011;13676;50.168;8.568;2023-10-19T00:44:48;4.65;;;4.10;;
25846;SDS011;13676;50.168;8.568;2023-10-19T00:47:16;6.78;;;5.50;;
25846;SDS011;13676;50.168;8.568;2023-10-19T00:49:45;4.35;;;3.90;;
25846;SDS011;13676;50.168;8.568;2023-10-19T00:54:38;6.65;;;5.13;;
25846;SDS011;13676;50.168;8.568;2023-10-19T00:57:16;5.70;;;5.10;;
25846;SDS011;13676;50.168;8.568;2023-10-19T01:00:06;7.65;;;4.60;;
25846;SDS011;13676;50.168;8.568;2023-10-19T01:02:45;4.28;;;3.88;;
25846;SDS011;13676;50.168;8.568;2023-10-19T01:05:11;5.60;;;3.67;;
25846;SDS011;13676;50.168;8.568;2023-10-19T01:07:39;6.13;;;4.35;;
25846;SDS011;13676;50.168;8.568;2023-10-19T01:10:06;3.97;;;3.58;;
25846;SDS011;13676;50.168;8.568;2023-10-19T01:12:53;3.47;;;3.10;;
25846;SDS011;13676;50.168;8.568;2023-10-19T01:15:21;3.78;;;3.40;;
25846;SDS011;13676;50.168;8.568;2023-10-19T01:17:54;3.55;;;3.00;;
25846;SDS011;13676;50.168;8.568;2023-10-19T01:20:23;5.68;;;4.05;;
25846;SDS011;13676;50.168;8.568;2023-10-19T01:22:59;4.18;;;3.53;;
25846;SDS011;13676;50.168;8.568;2023-10-19T01:25:30;3.20;;;2.90;;
25846;SDS011;13676;50.168;8.568;2023-10-19T01:28:07;2.80;;;2.53;;
25846;SDS011;13676;50.168;8.568;2023-10-19T01:30:36;3.20;;;2.63;;
25846;SDS011;13676;50.168;8.568;2023-10-19T01:33:03;3.15;;;2.83;;
25846;SDS011;13676;50.168;8.568;2023-10-19T01:35:30;3.13;;;2.83;;
25846;SDS011;13676;50.168;8.568;2023-10-19T01:38:15;2.75;;;2.50;;
25846;SDS011;13676;50.168;8.568;2023-10-19T01:40:41;2.80;;;2.35;;
25846;SDS011;13676;50.168;8.568;2023-10-19T01:43:14;3.67;;;2.67;;
25846;SDS011;13676;50.168;8.568;2023-10-19T01:45:49;2.42;;;2.20;;
25846;SDS011;13676;50.168;8.568;2023-10-19T01:48:19;2.47;;;2.22;;
25846;SDS011;13676;50.168;8.568;2023-10-19T01:50:48;2.40;;;2.08;;
25846;SDS011;13676;50.168;8.568;2023-10-19T01:53:15;2.95;;;2.50;;
25846;SDS011;13676;50.168;8.568;2023-10-19T01:55:43;3.47;;;3.15;;
25846;SDS011;13676;50.168;8.568;2023-10-19T01:58:10;3.50;;;3.07;;
25846;SDS011;13676;50.168;8.568;2023-10-19T02:00:36;6.88;;;3.17;;
25846;SDS011;13676;50.168;8.568;2023-10-19T02:03:08;3.70;;;3.08;;
25846;SDS011;13676;50.168;8.568;2023-10-19T02:05:34;2.78;;;2.58;;
25846;SDS011;13676;50.168;8.568;2023-10-19T02:08:07;2.90;;;2.60;;
25846;SDS011;13676;50.168;8.568;2023-10-19T02:10:35;3.50;;;2.85;;
25846;SDS011;13676;50.168;8.568;2023-10-19T02:13:02;3.72;;;3.05;;
25846;SDS011;13676;50.168;8.568;2023-10-19T02:15:32;3.55;;;2.85;;
25846;SDS011;13676;50.168;8.568;2023-10-19T02:18:02;3.28;;;2.97;;
25846;SDS011;13676;50.168;8.568;2023-10-19T02:20:28;3.72;;;3.10;;
25846;SDS011;13676;50.168;8.568;2023-10-19T02:22:54;3.42;;;3.00;;
25846;SDS011;13676;50.168;8.568;2023-10-19T02:25:22;4.05;;;3.65;;
25846;SDS011;13676;50.168;8.568;2023-10-19T02:27:50;3.90;;;3.53;;
25846;SDS011;13676;50.168;8.568;2023-10-19T02:30:16;4.35;;;2.90;;
25846;SDS011;13676;50.168;8.568;2023-10-19T02:32:42;3.42;;;3.13;;
25846;SDS011;13676;50.168;8.568;2023-10-19T02:35:09;3.35;;;3.05;;
25846;SDS011;13676;50.168;8.568;2023-10-19T02:37:36;4.10;;;3.53;;
25846;SDS011;13676;50.168;8.568;2023-10-19T02:40:04;3.78;;;3.47;;
25846;SDS011;13676;50.168;8.568;2023-10-19T02:42:38;3.17;;;2.90;;
25846;SDS011;13676;50.168;8.568;2023-10-19T02:45:04;3.50;;;3.03;;
25846;SDS011;13676;50.168;8.568;2023-10-19T02:47:31;3.25;;;2.95;;
25846;SDS011;13676;50.168;8.568;2023-10-19T02:49:57;3.10;;;2.80;;
25846;SDS011;13676;50.168;8.568;2023-10-19T02:52:22;3.50;;;3.20;;
25846;SDS011;13676;50.168;8.568;2023-10-19T02:54:50;3.08;;;2.88;;
25846;SDS011;13676;50.168;8.568;2023-10-19T02:57:16;4.03;;;3.63;;
25846;SDS011;13676;50.168;8.568;2023-10-19T02:59:42;3.75;;;3.28;;
25846;SDS011;13676;50.168;8.568;2023-10-19T03:02:09;4.00;;;3.60;;
25846;SDS011;13676;50.168;8.568;2023-10-19T03:04:37;3.55;;;3.25;;
25846;SDS011;13676;50.168;8.568;2023-10-19T03:07:04;4.40;;;3.20;;
25846;SDS011;13676;50.168;8.568;2023-10-19T03:12:01;3.92;;;3.40;;
25846;SDS011;13676;50.168;8.568;2023-10-19T03:14:34;5.00;;;4.05;;
25846;SDS011;13676;50.168;8.568;2023-10-19T03:16:59;6.50;;;4.47;;
25846;SDS011;13676;50.168;8.568;2023-10-19T03:19:25;5.63;;;4.30;;
25846;SDS011;13676;50.168;8.568;2023-10-19T03:21:51;5.03;;;4.38;;
25846;SDS011;13676;50.168;8.568;2023-10-19T03:24:18;4.90;;;3.95;;
25846;SDS011;13676;50.168;8.568;2023-10-19T03:27:03;5.22;;;4.40;;
25846;SDS011;13676;50.168;8.568;2023-10-19T03:32:11;6.63;;;4.90;;
25846;SDS011;13676;50.168;8.568;2023-10-19T03:34:37;5.93;;;5.10;;
25846;SDS011;13676;50.168;8.568;2023-10-19T03:37:03;4.97;;;4.47;;
25846;SDS011;13676;50.168;8.568;2023-10-19T03:39:34;6.75;;;5.38;;
25846;SDS011;13676;50.168;8.568;2023-10-19T03:42:03;6.47;;;5.78;;
25846;SDS011;13676;50.168;8.568;2023-10-19T03:44:32;6.85;;;6.15;;
25846;SDS011;13676;50.168;8.568;2023-10-19T03:47:06;8.95;;;5.68;;
25846;SDS011;13676;50.168;8.568;2023-10-19T03:49:37;7.65;;;6.03;;
25846;SDS011;13676;50.168;8.568;2023-10-19T03:52:07;8.02;;;6.55;;
25846;SDS011;13676;50.168;8.568;2023-10-19T03:54:35;10.15;;;7.00;;
25846;SDS011;13676;50.168;8.568;2023-10-19T03:57:04;8.32;;;6.50;;
25846;SDS011;13676;50.168;8.568;2023-10-19T03:59:37;8.05;;;7.07;;
25846;SDS011;13676;50.168;8.568;2023-10-19T04:02:03;7.78;;;6.15;;
25846;SDS011;13676;50.168;8.568;2023-10-19T04:04:49;8.52;;;6.55;;
25846;SDS011;13676;50.168;8.568;2023-10-19T04:09:46;11.10;;;7.88;;
25846;SDS011;13676;50.168;8.568;2023-10-19T04:12:42;9.50;;;6.88;;
25846;SDS011;13676;50.168;8.568;2023-10-19T04:15:09;10.90;;;7.38;;
25846;SDS011;13676;50.168;8.568;2023-10-19T04:17:39;10.57;;;7.82;;
25846;SDS011;13676;50.168;8.568;2023-10-19T04:20:08;11.82;;;7.20;;
25846;SDS011;13676;50.168;8.568;2023-10-19T04:22:54;13.77;;;7.93;;
25846;SDS011;13676;50.168;8.568;2023-10-19T04:25:19;17.75;;;7.82;;
25846;SDS011;13676;50.168;8.568;2023-10-19T04:27:45;11.98;;;7.50;;
25846;SDS011;13676;50.168;8.568;2023-10-19T04:30:12;19.48;;;9.10;;
25846;SDS011;13676;50.168;8.568;2023-10-19T04:32:47;16.98;;;9.82;;
25846;SDS011;13676;50.168;8.568;2023-10-19T04:35:13;18.48;;;11.50;;
25846;SDS011;13676;50.168;8.568;2023-10-19T04:37:41;20.45;;;11.10;;
25846;SDS011;13676;50.168;8.568;2023-10-19T04:40:10;22.25;;;12.02;;
25846;SDS011;13676;50.168;8.568;2023-10-19T04:42:37;26.90;;;14.02;;
25846;SDS011;13676;50.168;8.568;2023-10-19T04:45:03;23.33;;;12.68;;
25846;SDS011;13676;50.168;8.568;2023-10-19T04:47:31;25.48;;;12.52;;
25846;SDS011;13676;50.168;8.568;2023-10-19T04:50:00;19.67;;;11.93;;
25846;SDS011;13676;50.168;8.568;2023-10-19T04:52:25;26.50;;;12.63;;
25846;SDS011;13676;50.168;8.568;2023-10-19T04:54:51;25.45;;;13.23;;
25846;SDS011;13676;50.168;8.568;2023-10-19T04:59:45;30.23;;;13.67;;
25846;SDS011;13676;50.168;8.568;2023-10-19T05:02:11;22.27;;;12.73;;
25846;SDS011;13676;50.168;8.568;2023-10-19T05:04:36;23.58;;;12.95;;
25846;SDS011;13676;50.168;8.568;2023-10-19T05:07:02;25.75;;;12.52;;
25846;SDS011;13676;50.168;8.568;2023-10-19T05:09:29;26.95;;;13.88;;
25846;SDS011;13676;50.168;8.568;2023-10-19T05:11:57;34.50;;;13.32;;
25846;SDS011;13676;50.168;8.568;2023-10-19T05:14:22;23.98;;;12.88;;
25846;SDS011;13676;50.168;8.568;2023-10-19T05:16:48;30.80;;;14.27;;
25846;SDS011;13676;50.168;8.568;2023-10-19T05:19:14;23.73;;;12.25;;
25846;SDS011;13676;50.168;8.568;2023-10-19T05:21:39;25.40;;;14.18;;
25846;SDS011;13676;50.168;8.568;2023-10-19T05:24:06;32.15;;;17.08;;
25846;SDS011;13676;50.168;8.568;2023-10-19T05:26:35;30.77;;;15.77;;
25846;SDS011;13676;50.168;8.568;2023-10-19T05:29:00;29.73;;;16.35;;
25846;SDS011;13676;50.168;8.568;2023-10-19T05:31:26;30.75;;;16.73;;
25846;SDS011;13676;50.168;8.568;2023-10-19T05:33:53;29.13;;;16.05;;
25846;SDS011;13676;50.168;8.568;2023-10-19T05:36:18;29.67;;;14.90;;
25846;SDS011;13676;50.168;8.568;2023-10-19T05:38:43;33.88;;;17.40;;
25846;SDS011;13676;50.168;8.568;2023-10-19T05:41:09;32.03;;;17.45;;
25846;SDS011;13676;50.168;8.568;2023-10-19T05:43:35;32.45;;;17.38;;
25846;SDS011;13676;50.168;8.568;2023-10-19T05:46:03;35.17;;;16.95;;
25846;SDS011;13676;50.168;8.568;2023-10-19T05:48:29;39.53;;;18.20;;
25846;SDS011;13676;50.168;8.568;2023-10-19T05:50:55;27.70;;;15.48;;
25846;SDS011;13676;50.168;8.568;2023-10-19T05:53:21;34.58;;;19.65;;
25846;SDS011;13676;50.168;8.568;2023-10-19T05:55:47;29.20;;;17.20;;
25846;SDS011;13676;50.168;8.568;2023-10-19T05:58:15;41.75;;;18.63;;
25846;SDS011;13676;50.168;8.568;2023-10-19T06:00:41;29.63;;;17.38;;
25846;SDS011;13676;50.168;8.568;2023-10-19T06:03:07;23.85;;;15.10;;
25846;SDS011;13676;50.168;8.568;2023-10-19T14:04:49;24.00;;;16.20;;
25846;SDS011;13676;50.168;8.568;2023-10-19T14:07:26;25.50;;;16.35;;
25846;SDS011;13676;50.168;8.568;2023-10-19T14:16:49;22.02;;;16.00;;
25846;SDS011;13676;50.168;8.568;2023-10-19T14:19:15;26.75;;;17.38;;
25846;SDS011;13676;50.168;8.568;2023-10-19T14:21:42;21.95;;;16.23;;
25846;SDS011;13676;50.168;8.568;2023-10-19T14:24:10;23.38;;;15.27;;
25846;SDS011;13676;50.168;8.568;2023-10-19T14:26:35;23.27;;;16.60;;
25846;SDS011;13676;50.168;8.568;2023-10-19T14:29:03;21.67;;;16.65;;
25846;SDS011;13676;50.168;8.568;2023-10-19T14:31:28;22.25;;;16.70;;
25846;SDS011;13676;50.168;8.568;2023-10-19T14:33:54;23.38;;;16.63;;
25846;SDS011;13676;50.168;8.568;2023-10-19T14:36:19;25.52;;;16.08;;
25846;SDS011;13676;50.168;8.568;2023-10-19T14:38:44;19.58;;;15.05;;
25846;SDS011;13676;50.168;8.568;2023-10-19T14:43:38;21.45;;;16.13;;
25846;SDS011;13676;50.168;8.568;2023-10-19T14:46:06;21.30;;;16.20;;
25846;SDS011;13676;50.168;8.568;2023-10-19T14:48:32;18.08;;;13.35;;
25846;SDS011;13676;50.168;8.568;2023-10-19T14:50:58;17.38;;;12.63;;
25846;SDS011;13676;50.168;8.568;2023-10-19T14:53:24;20.30;;;15.85;;
25846;SDS011;13676;50.168;8.568;2023-10-19T14:55:49;22.60;;;15.43;;
25846;SDS011;13676;50.168;8.568;2023-10-19T14:58:15;17.40;;;13.18;;
25846;SDS011;13676;50.168;8.568;2023-10-19T15:00:42;22.63;;;15.07;;
25846;SDS011;13676;50.168;8.568;2023-10-19T15:03:15;21.77;;;15.57;;
25846;SDS011;13676;50.168;8.568;2023-10-19T15:05:42;19.60;;;14.88;;
25846;SDS011;13676;50.168;8.568;2023-10-19T15:08:08;18.52;;;15.40;;
25846;SDS011;13676;50.168;8.568;2023-10-19T15:10:35;19.83;;;15.07;;
25846;SDS011;13676;50.168;8.568;2023-10-19T15:13:04;20.80;;;15.15;;
25846;SDS011;13676;50.168;8.568;2023-10-19T15:15:33;21.15;;;15.80;;
25846;SDS011;13676;50.168;8.568;2023-10-19T15:17:59;22.80;;;16.92;;
25846;SDS011;13676;50.168;8.568;2023-10-19T15:20:26;20.75;;;15.73;;
25846;SDS011;13676;50.168;8.568;2023-10-19T15:22:52;21.73;;;15.27;;
25846;SDS011;13676;50.168;8.568;2023-10-19T15:25:22;20.90;;;15.15;;
25846;SDS011;13676;50.168;8.568;2023-10-19T15:27:51;24.02;;;15.38;;
25846;SDS011;13676;50.168;8.568;2023-10-19T15:30:25;20.33;;;14.80;;
25846;SDS011;13676;50.168;8.568;2023-10-19T15:32:53;20.23;;;14.93;;
25846;SDS011;13676;50.168;8.568;2023-10-19T15:40:17;34.55;;;19.88;;
25846;SDS011;13676;50.168;8.568;2023-10-19T15:42:44;28.35;;;18.30;;
25846;SDS011;13676;50.168;8.568;2023-10-19T15:55:08;59.20;;;32.15;;
25846;SDS011;13676;50.168;8.568;2023-10-19T15:57:36;50.65;;;28.90;;
25846;SDS011;13676;50.168;8.568;2023-10-19T16:00:02;43.88;;;24.77;;
25846;SDS011;13676;50.168;8.568;2023-10-19T16:02:28;58.85;;;33.80;;
25846;SDS011;13676;50.168;8.568;2023-10-19T16:04:55;56.33;;;34.95;;
25846;SDS011;13676;50.168;8.568;2023-10-19T16:07:20;58.42;;;33.42;;
25846;SDS011;13676;50.168;8.568;2023-10-19T16:09:46;60.25;;;32.85;;
25846;SDS011;13676;50.168;8.568;2023-10-19T16:12:11;55.45;;;32.53;;
25846;SDS011;13676;50.168;8.568;2023-10-19T16:14:37;46.05;;;26.77;;
25846;SDS011;13676;50.168;8.568;2023-10-19T16:17:04;34.55;;;21.15;;
25846;SDS011;13676;50.168;8.568;2023-10-19T16:19:30;29.15;;;18.98;;
25846;SDS011;13676;50.168;8.568;2023-10-19T16:21:58;30.00;;;18.20;;
25846;SDS011;13676;50.168;8.568;2023-10-19T16:24:24;44.53;;;26.92;;
25846;SDS011;13676;50.168;8.568;2023-10-19T16:26:53;44.65;;;26.17;;
25846;SDS011;13676;50.168;8.568;2023-10-19T16:29:19;37.03;;;23.95;;
25846;SDS011;13676;50.168;8.568;2023-10-19T16:31:45;33.05;;;21.52;;
25846;SDS011;13676;50.168;8.568;2023-10-19T16:34:11;36.40;;;20.35;;
25846;SDS011;13676;50.168;8.568;2023-10-19T16:36:37;27.83;;;18.55;;
25846;SDS011;13676;50.168;8.568;2023-10-19T16:39:03;37.08;;;23.60;;
25846;SDS011;13676;50.168;8.568;2023-10-19T16:41:31;34.70;;;21.63;;
25846;SDS011;13676;50.168;8.568;2023-10-19T16:43:58;28.80;;;18.98;;
25846;SDS011;13676;50.168;8.568;2023-10-19T16:48:49;33.05;;;18.75;;
25846;SDS011;13676;50.168;8.568;2023-10-19T16:51:16;28.20;;;17.55;;
25846;SDS011;13676;50.168;8.568;2023-10-19T16:53:41;28.33;;;18.10;;
25846;SDS011;13676;50.168;8.568;2023-10-19T16:56:07;35.05;;;22.02;;
25846;SDS011;13676;50.168;8.568;2023-10-19T16:58:32;35.97;;;22.63;;
25846;SDS011;13676;50.168;8.568;2023-10-19T17:00:58;29.20;;;19.13;;
25846;SDS011;13676;50.168;8.568;2023-10-19T17:03:23;25.88;;;17.85;;
25846;SDS011;13676;50.168;8.568;2023-10-19T17:05:50;24.30;;;15.35;;
25846;SDS011;13676;50.168;8.568;2023-10-19T17:08:17;36.10;;;20.27;;
25846;SDS011;13676;50.168;8.568;2023-10-19T17:10:45;29.70;;;19.23;;
25846;SDS011;13676;50.168;8.568;2023-10-19T17:13:10;27.20;;;17.33;;
25846;SDS011;13676;50.168;8.568;2023-10-19T17:15:36;28.00;;;19.02;;
25846;SDS011;13676;50.168;8.568;2023-10-19T17:18:02;27.45;;;17.98;;
25846;SDS011;13676;50.168;8.568;2023-10-19T17:20:29;23.20;;;16.42;;
25846;SDS011;13676;50.168;8.568;2023-10-19T17:22:55;22.83;;;14.55;;
25846;SDS011;13676;50.168;8.568;2023-10-19T17:25:20;18.92;;;12.82;;
25846;SDS011;13676;50.168;8.568;2023-10-19T17:35:06;25.52;;;16.05;;
25846;SDS011;13676;50.168;8.568;2023-10-19T17:37:32;20.27;;;15.73;;
25846;SDS011;13676;50.168;8.568;2023-10-19T17:39:58;24.17;;;16.52;;
25846;SDS011;13676;50.168;8.568;2023-10-19T17:44:52;19.88;;;12.68;;
25846;SDS011;13676;50.168;8.568;2023-10-19T17:49:52;16.88;;;10.98;;
25846;SDS011;13676;50.168;8.568;2023-10-19T17:52:18;18.25;;;12.15;;
25846;SDS011;13676;50.168;8.568;2023-10-19T17:54:45;13.65;;;9.98;;
25846;SDS011;13676;50.168;8.568;2023-10-19T17:57:11;18.75;;;11.57;;
25846;SDS011;13676;50.168;8.568;2023-10-19T17:59:37;16.75;;;12.10;;
25846;SDS011;13676;50.168;8.568;2023-10-19T18:02:03;14.88;;;10.23;;
25846;SDS011;13676;50.168;8.568;2023-10-19T18:04:32;20.38;;;10.35;;
25846;SDS011;13676;50.168;8.568;2023-10-19T18:12:02;16.20;;;11.65;;
25846;SDS011;13676;50.168;8.568;2023-10-19T18:14:28;14.63;;;10.18;;
25846;SDS011;13676;50.168;8.568;2023-10-19T18:16:54;15.15;;;10.43;;
25846;SDS011;13676;50.168;8.568;2023-10-19T18:19:20;16.50;;;10.43;;
25846;SDS011;13676;50.168;8.568;2023-10-19T18:21:47;15.05;;;9.93;;
25846;SDS011;13676;50.168;8.568;2023-10-19T18:24:13;13.98;;;10.05;;
25846;SDS011;13676;50.168;8.568;2023-10-19T18:26:39;14.63;;;9.68;;
25846;SDS011;13676;50.168;8.568;2023-10-19T18:29:04;11.68;;;9.10;;
25846;SDS011;13676;50.168;8.568;2023-10-19T18:36:26;10.82;;;7.55;;
25846;SDS011;13676;50.168;8.568;2023-10-19T18:39:00;12.70;;;9.15;;
25846;SDS011;13676;50.168;8.568;2023-10-19T18:41:26;12.93;;;8.77;;
25846;SDS011;13676;50.168;8.568;2023-10-19T18:43:53;14.63;;;9.77;;
25846;SDS011;13676;50.168;8.568;2023-10-19T18:46:19;12.52;;;8.60;;
25846;SDS011;13676;50.168;8.568;2023-10-19T18:48:44;12.57;;;8.50;;
25846;SDS011;13676;50.168;8.568;2023-10-19T18:51:10;12.77;;;8.98;;
25846;SDS011;13676;50.168;8.568;2023-10-19T18:53:37;12.68;;;9.60;;
25846;SDS011;13676;50.168;8.568;2023-10-19T18:56:03;14.23;;;9.77;;
25846;SDS011;13676;50.168;8.568;2023-10-19T19:03:35;15.45;;;10.38;;
25846;SDS011;13676;50.168;8.568;2023-10-19T19:08:33;10.43;;;8.25;;
25846;SDS011;13676;50.168;8.568;2023-10-19T19:13:29;9.65;;;7.28;;
25846;SDS011;13676;50.168;8.568;2023-10-19T19:15:54;12.90;;;8.60;;
25846;SDS011;13676;50.168;8.568;2023-10-19T19:18:23;12.80;;;9.48;;
25846;SDS011;13676;50.168;8.568;2023-10-19T19:20:49;11.52;;;8.35;;
25846;SDS011;13676;50.168;8.568;2023-10-19T19:23:16;15.15;;;10.13;;
25846;SDS011;13676;50.168;8.568;2023-10-19T19:25:43;14.82;;;9.95;;
25846;SDS011;13676;50.168;8.568;2023-10-19T19:30:40;14.93;;;10.75;;
25846;SDS011;13676;50.168;8.568;2023-10-19T19:33:06;15.40;;;9.38;;
25846;SDS011;13676;50.168;8.568;2023-10-19T19:47:48;14.05;;;8.70;;
25846;SDS011;13676;50.168;8.568;2023-10-19T19:50:15;11.57;;;8.05;;
25846;SDS011;13676;50.168;8.568;2023-10-19T19:52:43;10.43;;;7.78;;
25846;SDS011;13676;50.168;8.568;2023-10-19T19:55:10;11.93;;;8.80;;
25846;SDS011;13676;50.168;8.568;2023-10-19T19:57:40;10.40;;;8.20;;
25846;SDS011;13676;50.168;8.568;2023-10-19T20:02:39;13.02;;;8.20;;
25846;SDS011;13676;50.168;8.568;2023-10-19T20:10:14;11.57;;;7.32;;
25846;SDS011;13676;50.168;8.568;2023-10-19T20:12:40;11.15;;;7.00;;
25846;SDS011;13676;50.168;8.568;2023-10-19T20:15:10;10.05;;;7.30;;
25846;SDS011;13676;50.168;8.568;2023-10-19T20:17:38;9.00;;;6.57;;
25846;SDS011;13676;50.168;8.568;2023-10-19T20:22:34;8.45;;;6.00;;
25846;SDS011;13676;50.168;8.568;2023-10-19T20:27:26;12.95;;;7.50;;
25846;SDS011;13676;50.168;8.568;2023-10-19T20:29:51;12.45;;;9.00;;
25846;SDS011;13676;50.168;8.568;2023-10-19T20:32:20;11.27;;;8.32;;
25846;SDS011;13676;50.168;8.568;2023-10-19T20:34:45;11.03;;;7.33;;
25846;SDS011;13676;50.168;8.568;2023-10-19T20:37:11;11.77;;;7.55;;
25846;SDS011;13676;50.168;8.568;2023-10-19T20:39:36;11.82;;;7.90;;
25846;SDS011;13676;50.168;8.568;2023-10-19T20:42:04;9.05;;;7.20;;
25846;SDS011;13676;50.168;8.568;2023-10-19T20:44:30;12.85;;;8.27;;
25846;SDS011;13676;50.168;8.568;2023-10-19T20:47:06;8.85;;;7.30;;
25846;SDS011;13676;50.168;8.568;2023-10-19T20:49:35;10.75;;;7.10;;
25846;SDS011;13676;50.168;8.568;2023-10-19T20:56:54;10.77;;;7.00;;
25846;SDS011;13676;50.168;8.568;2023-10-19T20:59:20;10.90;;;7.28;;
25846;SDS011;13676;50.168;8.568;2023-10-19T21:01:46;7.13;;;6.10;;
25846;SDS011;13676;50.168;8.568;2023-10-19T21:04:12;8.77;;;7.03;;
25846;SDS011;13676;50.168;8.568;2023-10-19T21:06:40;9.98;;;6.82;;
25846;SDS011;13676;50.168;8.568;2023-10-19T21:09:05;8.90;;;6.40;;
25846;SDS011;13676;50.168;8.568;2023-10-19T21:11:30;7.90;;;5.88;;
25846;SDS011;13676;50.168;8.568;2023-10-19T21:13:58;10.15;;;6.25;;
25846;SDS011;13676;50.168;8.568;2023-10-19T21:16:23;6.03;;;5.05;;
25846;SDS011;13676;50.168;8.568;2023-10-19T21:18:49;6.38;;;5.35;;
25846;SDS011;13676;50.168;8.568;2023-10-19T21:26:10;8.00;;;6.75;;
25846;SDS011;13676;50.168;8.568;2023-10-19T21:31:06;6.55;;;5.05;;
25846;SDS011;13676;50.168;8.568;2023-10-19T21:33:32;6.20;;;4.50;;
25846;SDS011;13676;50.168;8.568;2023-10-19T21:35:57;6.10;;;4.50;;
25846;SDS011;13676;50.168;8.568;2023-10-19T21:38:23;9.50;;;5.75;;
25846;SDS011;13676;50.168;8.568;2023-10-19T21:40:49;6.85;;;5.47;;
25846;SDS011;13676;50.168;8.568;2023-10-19T21:43:14;8.38;;;5.22;;
25846;SDS011;13676;50.168;8.568;2023-10-19T21:45:40;9.38;;;5.07;;
25846;SDS011;13676;50.168;8.568;2023-10-19T21:48:06;7.13;;;5.53;;
25846;SDS011;13676;50.168;8.568;2023-10-19T21:50:32;6.78;;;5.30;;
25846;SDS011;13676;50.168;8.568;2023-10-19T21:52:58;6.80;;;5.40;;
25846;SDS011;13676;50.168;8.568;2023-10-19T21:55:24;8.63;;;5.50;;
25846;SDS011;13676;50.168;8.568;2023-10-19T21:57:49;6.47;;;5.13;;
25846;SDS011;13676;50.168;8.568;2023-10-19T22:00:15;7.82;;;5.60;;
25846;SDS011;13676;50.168;8.568;2023-10-19T22:02:52;6.57;;;4.68;;
25846;SDS011;13676;50.168;8.568;2023-10-19T22:05:17;5.43;;;4.30;;
25846;SDS011;13676;50.168;8.568;2023-10-19T22:07:43;6.90;;;4.65;;
25846;SDS011;13676;50.168;8.568;2023-10-19T22:10:09;8.23;;;4.97;;
25846;SDS011;13676;50.168;8.568;2023-10-19T22:12:35;7.85;;;5.85;;
25846;SDS011;13676;50.168;8.568;2023-10-19T22:15:01;7.57;;;5.53;;
25846;SDS011;13676;50.168;8.568;2023-10-19T22:17:28;7.55;;;4.80;;
25846;SDS011;13676;50.168;8.568;2023-10-19T22:19:54;5.03;;;4.50;;
25846;SDS011;13676;50.168;8.568;2023-10-19T22:22:20;5.07;;;3.97;;
25846;SDS011;13676;50.168;8.568;2023-10-19T22:24:46;4.35;;;3.67;;
25846;SDS011;13676;50.168;8.568;2023-10-19T22:27:12;4.90;;;4.30;;
25846;SDS011;13676;50.168;8.568;2023-10-19T22:29:39;5.22;;;4.60;;
25846;SDS011;13676;50.168;8.568;2023-10-19T22:32:04;8.90;;;6.43;;
25846;SDS011;13676;50.168;8.568;2023-10-19T22:34:31;7.88;;;5.50;;
25846;SDS011;13676;50.168;8.568;2023-10-19T22:36:57;8.77;;;5.38;;
25846;SDS011;13676;50.168;8.568;2023-10-19T22:39:23;6.03;;;4.80;;
25846;SDS011;13676;50.168;8.568;2023-10-19T22:41:48;6.78;;;5.45;;
25846;SDS011;13676;50.168;8.568;2023-10-19T22:44:13;7.47;;;5.20;;
25846;SDS011;13676;50.168;8.568;2023-10-19T22:46:39;6.40;;;5.55;;
25846;SDS011;13676;50.168;8.568;2023-10-19T22:49:06;6.18;;;4.53;;
25846;SDS011;13676;50.168;8.568;2023-10-19T22:51:33;12.35;;;7.53;;
25846;SDS011;13676;50.168;8.568;2023-10-19T22:53:58;9.48;;;5.80;;
25846;SDS011;13676;50.168;8.568;2023-10-19T22:56:24;8.75;;;5.28;;
25846;SDS011;13676;50.168;8.568;2023-10-19T22:58:50;10.00;;;5.43;;
25846;SDS011;13676;50.168;8.568;2023-10-19T23:01:16;8.60;;;6.20;;
25846;SDS011;13676;50.168;8.568;2023-10-19T23:03:42;10.68;;;6.32;;
25846;SDS011;13676;50.168;8.568;2023-10-19T23:06:10;9.98;;;6.22;;
25846;SDS011;13676;50.168;8.568;2023-10-19T23:08:36;8.38;;;5.65;;
25846;SDS011;13676;50.168;8.568;2023-10-19T23:11:09;7.55;;;5.22;;
25846;SDS011;13676;50.168;8.568;2023-10-19T23:13:36;9.38;;;7.10;;
25846;SDS011;13676;50.168;8.568;2023-10-19T23:16:10;8.65;;;7.22;;
25846;SDS011;13676;50.168;8.568;2023-10-19T23:18:40;7.53;;;5.13;;
25846;SDS011;13676;50.168;8.568;2023-10-19T23:21:06;7.37;;;6.20;;
25846;SDS011;13676;50.168;8.568;2023-10-19T23:23:32;9.52;;;6.45;;
25846;SDS011;13676;50.168;8.568;2023-10-19T23:25:58;6.70;;;5.95;;
25846;SDS011;13676;50.168;8.568;2023-10-19T23:28:29;7.00;;;5.78;;
25846;SDS011;13676;50.168;8.568;2023-10-19T23:30:55;5.47;;;4.75;;
25846;SDS011;13676;50.168;8.568;2023-10-19T23:33:29;9.40;;;7.50;;
25846;SDS011;13676;50.168;8.568;2023-10-19T23:35:56;8.10;;;6.90;;
25846;SDS011;13676;50.168;8.568;2023-10-19T23:38:21;10.90;;;6.05;;
25846;SDS011;13676;50.168;8.568;2023-10-19T23:40:47;7.78;;;5.70;;
25846;SDS011;13676;50.168;8.568;2023-10-19T23:43:15;12.45;;;8.80;;
25846;SDS011;13676;50.168;8.568;2023-10-19T23:45:40;12.80;;;7.40;;
25846;SDS011;13676;50.168;8.568;2023-10-19T23:48:06;8.15;;;7.35;;
25846;SDS011;13676;50.168;8.568;2023-10-19T23:50:39;11.68;;;8.13;;
25846;SDS011;13676;50.168;8.568;2023-10-19T23:53:04;13.07;;;8.98;;
25846;SDS011;13676;50.168;8.568;2023-10-19T23:55:29;11.50;;;9.50;;
25846;SDS011;13676;50.168;8.568;2023-10-19T23:57:55;12.20;;;8.70;;
